Terminal Aerodrome Forecast
Issued by NWS

Home | Current Version | Previous Version | Text Only | Print | Product List | Glossary On
Versions: 1 2 3 4 5 6 7 8 9 10 11 12 13 14 15 16 17 18 19
000
FTUS42 KFFC 260500
TAFPDK
TAF
KPDK 260525Z 2606/2706 00000KT P6SM FEW045
     FM261000 00000KT 6SM BR FEW015
     FM261600 27007KT P6SM SCT045
     FM270200 24004KT P6SM FEW050=

USA.gov is the U.S. government's official web portal to all federal, state and local government web resources and services.